West Mecca, Ohio
Current Conditions -  °F | °C
As of 4:51 PM on Friday 19 Dec 2014 (Local Time) from KYNG Reporting Station
Overcast Overcast  
Wind Chill: 24°   Ceiling: 2700
Heat Index: 30°   Visibility: 10mi
Dew Point: 21°   Wind: 6mph
Humidity: 69%   Direction: 310°NW
Pressure: 30.22"   Gusts: NA
Location:  41.3436°N, 80.7192°W
Report Text: KYNG 192151Z 31005KT 10SM OVC027 M01/M06 A3022 RMK AO2 SLP249 T10111061
Loading
Personal Weather Stations






























Interactive Weather Map New forecast layout! Learn more

10-Day Weather Forecast

Advertisements
Track Severe Weather on mobile